sensor_id;sensor_type;location;lat;lon;timestamp;temperature;humidity
14101;DHT22;7127;49.372;8.166;2023-06-04T00:02:12;20.20;33.80
14101;DHT22;7127;49.372;8.166;2023-06-04T00:04:39;20.30;33.90
14101;DHT22;7127;49.372;8.166;2023-06-04T00:07:06;20.20;33.80
14101;DHT22;7127;49.372;8.166;2023-06-04T00:09:34;20.20;33.80
14101;DHT22;7127;49.372;8.166;2023-06-04T00:12:01;20.10;33.70
14101;DHT22;7127;49.372;8.166;2023-06-04T00:14:28;20.10;33.70
14101;DHT22;7127;49.372;8.166;2023-06-04T00:16:55;20.20;33.80
14101;DHT22;7127;49.372;8.166;2023-06-04T00:19:22;20.10;33.70
14101;DHT22;7127;49.372;8.166;2023-06-04T00:21:49;20.10;33.70
14101;DHT22;7127;49.372;8.166;2023-06-04T00:24:16;20.10;33.70
14101;DHT22;7127;49.372;8.166;2023-06-04T00:26:45;20.10;33.70
14101;DHT22;7127;49.372;8.166;2023-06-04T00:29:12;20.10;33.70
14101;DHT22;7127;49.372;8.166;2023-06-04T00:31:38;20.00;33.70
14101;DHT22;7127;49.372;8.166;2023-06-04T00:34:05;20.00;33.70
14101;DHT22;7127;49.372;8.166;2023-06-04T00:36:32;19.90;33.70
14101;DHT22;7127;49.372;8.166;2023-06-04T00:38:59;19.90;33.70
14101;DHT22;7127;49.372;8.166;2023-06-04T00:41:26;19.90;33.70
14101;DHT22;7127;49.372;8.166;2023-06-04T00:43:54;19.90;33.80
14101;DHT22;7127;49.372;8.166;2023-06-04T00:46:23;19.90;33.80
14101;DHT22;7127;49.372;8.166;2023-06-04T00:48:51;19.80;33.70
14101;DHT22;7127;49.372;8.166;2023-06-04T00:51:18;19.80;33.70
14101;DHT22;7127;49.372;8.166;2023-06-04T00:53:45;19.60;33.60
14101;DHT22;7127;49.372;8.166;2023-06-04T00:56:13;19.70;33.70
14101;DHT22;7127;49.372;8.166;2023-06-04T00:58:40;19.70;33.70
14101;DHT22;7127;49.372;8.166;2023-06-04T01:01:15;19.70;33.80
14101;DHT22;7127;49.372;8.166;2023-06-04T01:03:47;19.70;33.80
14101;DHT22;7127;49.372;8.166;2023-06-04T01:06:19;19.70;33.80
14101;DHT22;7127;49.372;8.166;2023-06-04T01:08:50;19.70;34.40
14101;DHT22;7127;49.372;8.166;2023-06-04T01:11:30;19.60;33.70
14101;DHT22;7127;49.372;8.166;2023-06-04T01:13:57;19.60;33.80
14101;DHT22;7127;49.372;8.166;2023-06-04T01:16:27;19.60;33.80
14101;DHT22;7127;49.372;8.166;2023-06-04T01:18:57;19.60;33.80
14101;DHT22;7127;49.372;8.166;2023-06-04T01:21:26;19.60;33.80
14101;DHT22;7127;49.372;8.166;2023-06-04T01:23:56;19.60;33.80
14101;DHT22;7127;49.372;8.166;2023-06-04T01:26:26;19.60;33.80
14101;DHT22;7127;49.372;8.166;2023-06-04T01:28:54;19.60;33.80
14101;DHT22;7127;49.372;8.166;2023-06-04T01:31:21;19.60;33.70
14101;DHT22;7127;49.372;8.166;2023-06-04T01:33:52;19.60;33.70
14101;DHT22;7127;49.372;8.166;2023-06-04T01:36:19;19.60;33.80
14101;DHT22;7127;49.372;8.166;2023-06-04T01:38:46;19.60;33.80
14101;DHT22;7127;49.372;8.166;2023-06-04T01:41:13;19.50;33.70
14101;DHT22;7127;49.372;8.166;2023-06-04T01:43:40;19.60;33.90
14101;DHT22;7127;49.372;8.166;2023-06-04T01:46:07;19.60;33.80
14101;DHT22;7127;49.372;8.166;2023-06-04T01:48:34;19.50;33.80
14101;DHT22;7127;49.372;8.166;2023-06-04T01:51:03;19.60;33.80
14101;DHT22;7127;49.372;8.166;2023-06-04T01:53:31;19.40;33.60
14101;DHT22;7127;49.372;8.166;2023-06-04T01:55:57;19.40;33.60
14101;DHT22;7127;49.372;8.166;2023-06-04T01:58:24;19.40;33.70
14101;DHT22;7127;49.372;8.166;2023-06-04T02:00:53;19.30;33.60
14101;DHT22;7127;49.372;8.166;2023-06-04T02:03:21;19.30;33.60
14101;DHT22;7127;49.372;8.166;2023-06-04T02:05:48;19.10;33.50
14101;DHT22;7127;49.372;8.166;2023-06-04T02:08:17;19.20;33.70
14101;DHT22;7127;49.372;8.166;2023-06-04T02:10:45;19.20;33.70
14101;DHT22;7127;49.372;8.166;2023-06-04T02:13:12;19.10;33.70
14101;DHT22;7127;49.372;8.166;2023-06-04T02:15:39;19.10;33.70
14101;DHT22;7127;49.372;8.166;2023-06-04T02:18:14;19.10;33.70
14101;DHT22;7127;49.372;8.166;2023-06-04T02:20:42;19.10;33.70
14101;DHT22;7127;49.372;8.166;2023-06-04T02:23:10;19.10;33.70
14101;DHT22;7127;49.372;8.166;2023-06-04T02:25:38;19.10;33.70
14101;DHT22;7127;49.372;8.166;2023-06-04T02:28:06;19.10;33.70
14101;DHT22;7127;49.372;8.166;2023-06-04T02:30:33;19.10;33.70
14101;DHT22;7127;49.372;8.166;2023-06-04T02:33:00;19.10;33.70
14101;DHT22;7127;49.372;8.166;2023-06-04T02:35:27;19.00;33.70
14101;DHT22;7127;49.372;8.166;2023-06-04T02:37:54;19.00;33.70
14101;DHT22;7127;49.372;8.166;2023-06-04T02:40:23;19.00;33.70
14101;DHT22;7127;49.372;8.166;2023-06-04T02:42:52;19.00;33.80
14101;DHT22;7127;49.372;8.166;2023-06-04T02:45:19;19.00;33.80
14101;DHT22;7127;49.372;8.166;2023-06-04T02:47:45;19.00;33.70
14101;DHT22;7127;49.372;8.166;2023-06-04T02:50:14;19.00;33.80
14101;DHT22;7127;49.372;8.166;2023-06-04T02:52:41;18.90;33.70
14101;DHT22;7127;49.372;8.166;2023-06-04T02:55:08;18.90;33.70
14101;DHT22;7127;49.372;8.166;2023-06-04T02:57:38;19.00;33.80
14101;DHT22;7127;49.372;8.166;2023-06-04T03:00:08;18.90;33.80
14101;DHT22;7127;49.372;8.166;2023-06-04T03:02:41;18.90;33.80
14101;DHT22;7127;49.372;8.166;2023-06-04T03:05:09;18.90;33.80
14101;DHT22;7127;49.372;8.166;2023-06-04T03:07:38;18.90;33.80
14101;DHT22;7127;49.372;8.166;2023-06-04T03:10:07;18.80;33.70
14101;DHT22;7127;49.372;8.166;2023-06-04T03:12:34;18.80;33.70
14101;DHT22;7127;49.372;8.166;2023-06-04T03:15:01;18.80;33.70
14101;DHT22;7127;49.372;8.166;2023-06-04T03:17:29;18.80;33.70
14101;DHT22;7127;49.372;8.166;2023-06-04T03:19:57;19.00;33.80
14101;DHT22;7127;49.372;8.166;2023-06-04T03:22:24;18.80;33.70
14101;DHT22;7127;49.372;8.166;2023-06-04T03:24:51;18.90;33.80
14101;DHT22;7127;49.372;8.166;2023-06-04T03:27:18;18.90;33.80
14101;DHT22;7127;49.372;8.166;2023-06-04T03:29:45;18.90;33.80
14101;DHT22;7127;49.372;8.166;2023-06-04T03:32:13;18.80;33.70
14101;DHT22;7127;49.372;8.166;2023-06-04T03:34:42;18.90;33.70
14101;DHT22;7127;49.372;8.166;2023-06-04T03:37:10;18.80;33.60
14101;DHT22;7127;49.372;8.166;2023-06-04T03:39:36;18.90;33.70
14101;DHT22;7127;49.372;8.166;2023-06-04T03:42:04;18.80;33.50
14101;DHT22;7127;49.372;8.166;2023-06-04T03:44:31;18.80;33.50
14101;DHT22;7127;49.372;8.166;2023-06-04T03:46:58;18.80;33.50
14101;DHT22;7127;49.372;8.166;2023-06-04T03:49:25;18.80;34.10
14101;DHT22;7127;49.372;8.166;2023-06-04T03:51:53;18.80;33.50
14101;DHT22;7127;49.372;8.166;2023-06-04T03:54:21;18.70;33.50
14101;DHT22;7127;49.372;8.166;2023-06-04T03:56:48;18.70;33.50
14101;DHT22;7127;49.372;8.166;2023-06-04T03:59:15;18.70;33.60
14101;DHT22;7127;49.372;8.166;2023-06-04T04:01:42;18.70;33.60
14101;DHT22;7127;49.372;8.166;2023-06-04T04:04:09;18.70;33.60
14101;DHT22;7127;49.372;8.166;2023-06-04T04:06:36;18.70;33.50
14101;DHT22;7127;49.372;8.166;2023-06-04T04:09:04;18.60;33.50
14101;DHT22;7127;49.372;8.166;2023-06-04T04:11:32;18.60;33.50
14101;DHT22;7127;49.372;8.166;2023-06-04T04:13:59;18.70;33.60
14101;DHT22;7127;49.372;8.166;2023-06-04T04:16:26;18.60;33.50
14101;DHT22;7127;49.372;8.166;2023-06-04T04:18:53;18.60;33.60
14101;DHT22;7127;49.372;8.166;2023-06-04T04:21:20;18.60;33.70
14101;DHT22;7127;49.372;8.166;2023-06-04T04:23:49;18.60;33.70
14101;DHT22;7127;49.372;8.166;2023-06-04T04:26:18;18.70;33.80
14101;DHT22;7127;49.372;8.166;2023-06-04T04:28:45;18.60;33.70
14101;DHT22;7127;49.372;8.166;2023-06-04T04:31:12;18.60;33.70
14101;DHT22;7127;49.372;8.166;2023-06-04T04:33:39;18.70;33.80
14101;DHT22;7127;49.372;8.166;2023-06-04T04:36:06;18.60;33.90
14101;DHT22;7127;49.372;8.166;2023-06-04T04:38:37;18.60;34.60
14101;DHT22;7127;49.372;8.166;2023-06-04T04:41:05;18.60;34.00
14101;DHT22;7127;49.372;8.166;2023-06-04T04:43:35;18.80;34.10
14101;DHT22;7127;49.372;8.166;2023-06-04T04:46:03;18.70;34.00
14101;DHT22;7127;49.372;8.166;2023-06-04T04:48:30;18.70;34.00
14101;DHT22;7127;49.372;8.166;2023-06-04T04:50:57;18.70;33.80
14101;DHT22;7127;49.372;8.166;2023-06-04T04:53:25;18.70;33.90
14101;DHT22;7127;49.372;8.166;2023-06-04T04:55:52;18.70;34.00
14101;DHT22;7127;49.372;8.166;2023-06-04T04:58:19;18.70;34.00
14101;DHT22;7127;49.372;8.166;2023-06-04T05:00:47;18.80;34.10
14101;DHT22;7127;49.372;8.166;2023-06-04T05:03:14;18.80;34.00
14101;DHT22;7127;49.372;8.166;2023-06-04T05:05:41;18.80;33.90
14101;DHT22;7127;49.372;8.166;2023-06-04T05:08:09;18.80;34.00
14101;DHT22;7127;49.372;8.166;2023-06-04T05:10:35;18.90;34.70
14101;DHT22;7127;49.372;8.166;2023-06-04T05:13:02;18.90;34.70
14101;DHT22;7127;49.372;8.166;2023-06-04T05:15:30;18.90;34.20
14101;DHT22;7127;49.372;8.166;2023-06-04T05:17:58;18.90;34.20
14101;DHT22;7127;49.372;8.166;2023-06-04T05:20:27;19.00;34.30
14101;DHT22;7127;49.372;8.166;2023-06-04T05:22:54;19.00;34.20
14101;DHT22;7127;49.372;8.166;2023-06-04T05:25:21;19.10;34.20
14101;DHT22;7127;49.372;8.166;2023-06-04T05:27:48;19.30;34.30
14101;DHT22;7127;49.372;8.166;2023-06-04T05:30:15;19.20;34.20
14101;DHT22;7127;49.372;8.166;2023-06-04T05:32:42;19.30;34.20
14101;DHT22;7127;49.372;8.166;2023-06-04T05:35:11;19.30;34.20
14101;DHT22;7127;49.372;8.166;2023-06-04T05:37:38;19.30;33.70
14101;DHT22;7127;49.372;8.166;2023-06-04T05:40:08;19.30;33.60
14101;DHT22;7127;49.372;8.166;2023-06-04T05:42:36;19.30;33.80
14101;DHT22;7127;49.372;8.166;2023-06-04T05:45:03;19.30;33.80
14101;DHT22;7127;49.372;8.166;2023-06-04T05:47:30;19.40;34.00
14101;DHT22;7127;49.372;8.166;2023-06-04T05:49:57;19.40;34.10
14101;DHT22;7127;49.372;8.166;2023-06-04T05:52:26;19.40;34.10
14101;DHT22;7127;49.372;8.166;2023-06-04T05:54:52;19.60;34.10
14101;DHT22;7127;49.372;8.166;2023-06-04T05:57:20;19.60;34.10
14101;DHT22;7127;49.372;8.166;2023-06-04T05:59:47;19.70;33.90
14101;DHT22;7127;49.372;8.166;2023-06-04T06:02:14;19.70;33.90
14101;DHT22;7127;49.372;8.166;2023-06-04T06:04:41;19.80;33.80
14101;DHT22;7127;49.372;8.166;2023-06-04T06:07:08;19.80;33.80
14101;DHT22;7127;49.372;8.166;2023-06-04T06:09:37;19.90;34.00
14101;DHT22;7127;49.372;8.166;2023-06-04T06:12:04;20.00;34.00
14101;DHT22;7127;49.372;8.166;2023-06-04T06:14:31;20.00;33.90
14101;DHT22;7127;49.372;8.166;2023-06-04T06:16:58;20.10;34.10
14101;DHT22;7127;49.372;8.166;2023-06-04T06:19:25;20.10;33.80
14101;DHT22;7127;49.372;8.166;2023-06-04T06:21:52;20.00;33.50
14101;DHT22;7127;49.372;8.166;2023-06-04T06:24:19;20.20;33.70
14101;DHT22;7127;49.372;8.166;2023-06-04T06:26:47;20.30;33.90
14101;DHT22;7127;49.372;8.166;2023-06-04T06:29:14;20.30;33.60
14101;DHT22;7127;49.372;8.166;2023-06-04T06:31:41;20.50;33.80
14101;DHT22;7127;49.372;8.166;2023-06-04T06:34:08;20.50;33.80
14101;DHT22;7127;49.372;8.166;2023-06-04T06:36:35;20.50;33.80
14101;DHT22;7127;49.372;8.166;2023-06-04T06:39:01;20.50;33.50
14101;DHT22;7127;49.372;8.166;2023-06-04T06:41:28;20.60;33.70
14101;DHT22;7127;49.372;8.166;2023-06-04T06:43:57;20.70;33.40
14101;DHT22;7127;49.372;8.166;2023-06-04T06:46:24;20.70;34.20
14101;DHT22;7127;49.372;8.166;2023-06-04T06:48:51;20.80;33.70
14101;DHT22;7127;49.372;8.166;2023-06-04T06:51:18;20.80;33.60
14101;DHT22;7127;49.372;8.166;2023-06-04T06:53:45;21.00;33.60
14101;DHT22;7127;49.372;8.166;2023-06-04T06:56:13;21.00;33.60
14101;DHT22;7127;49.372;8.166;2023-06-04T06:58:40;21.10;33.60
14101;DHT22;7127;49.372;8.166;2023-06-04T07:01:08;21.10;33.20
14101;DHT22;7127;49.372;8.166;2023-06-04T07:03:35;21.30;33.50
14101;DHT22;7127;49.372;8.166;2023-06-04T07:06:03;21.30;33.50
14101;DHT22;7127;49.372;8.166;2023-06-04T07:08:30;21.40;33.30
14101;DHT22;7127;49.372;8.166;2023-06-04T07:10:57;21.50;33.50
14101;DHT22;7127;49.372;8.166;2023-06-04T07:13:24;21.50;33.50
14101;DHT22;7127;49.372;8.166;2023-06-04T07:15:51;21.60;33.60
14101;DHT22;7127;49.372;8.166;2023-06-04T07:18:19;21.70;33.10
14101;DHT22;7127;49.372;8.166;2023-06-04T07:20:46;21.70;33.20
14101;DHT22;7127;49.372;8.166;2023-06-04T07:23:13;21.90;33.40
14101;DHT22;7127;49.372;8.166;2023-06-04T07:25:40;21.90;33.20
14101;DHT22;7127;49.372;8.166;2023-06-04T07:28:06;22.00;33.40
14101;DHT22;7127;49.372;8.166;2023-06-04T07:30:33;22.20;33.30
14101;DHT22;7127;49.372;8.166;2023-06-04T07:33:01;22.10;33.30
14101;DHT22;7127;49.372;8.166;2023-06-04T07:35:29;22.20;33.40
14101;DHT22;7127;49.372;8.166;2023-06-04T07:37:56;22.30;33.40
14101;DHT22;7127;49.372;8.166;2023-06-04T07:40:23;22.30;33.20
14101;DHT22;7127;49.372;8.166;2023-06-04T07:42:50;22.30;33.10
14101;DHT22;7127;49.372;8.166;2023-06-04T07:45:17;22.40;33.00
14101;DHT22;7127;49.372;8.166;2023-06-04T07:47:44;22.40;32.80
14101;DHT22;7127;49.372;8.166;2023-06-04T07:50:11;22.20;32.70
14101;DHT22;7127;49.372;8.166;2023-06-04T07:52:39;22.40;32.80
14101;DHT22;7127;49.372;8.166;2023-06-04T07:55:06;22.30;33.00
14101;DHT22;7127;49.372;8.166;2023-06-04T07:57:33;22.30;32.90
14101;DHT22;7127;49.372;8.166;2023-06-04T08:00:00;22.30;32.90
14101;DHT22;7127;49.372;8.166;2023-06-04T08:02:30;22.30;32.80
14101;DHT22;7127;49.372;8.166;2023-06-04T08:04:57;22.30;32.90
14101;DHT22;7127;49.372;8.166;2023-06-04T08:07:24;22.20;32.80
14101;DHT22;7127;49.372;8.166;2023-06-04T08:09:52;22.20;32.90
14101;DHT22;7127;49.372;8.166;2023-06-04T08:12:21;22.30;33.10
14101;DHT22;7127;49.372;8.166;2023-06-04T08:14:48;22.30;33.10
14101;DHT22;7127;49.372;8.166;2023-06-04T08:17:15;22.30;33.00
14101;DHT22;7127;49.372;8.166;2023-06-04T08:19:42;22.30;33.10
14101;DHT22;7127;49.372;8.166;2023-06-04T08:22:09;22.40;33.00
14101;DHT22;7127;49.372;8.166;2023-06-04T08:24:37;22.40;33.10
14101;DHT22;7127;49.372;8.166;2023-06-04T08:27:05;22.60;33.10
14101;DHT22;7127;49.372;8.166;2023-06-04T08:29:33;22.60;33.10
14101;DHT22;7127;49.372;8.166;2023-06-04T08:32:01;22.70;33.20
14101;DHT22;7127;49.372;8.166;2023-06-04T08:34:28;22.80;33.80
14101;DHT22;7127;49.372;8.166;2023-06-04T08:36:54;22.90;33.10
14101;DHT22;7127;49.372;8.166;2023-06-04T08:39:22;22.90;32.90
14101;DHT22;7127;49.372;8.166;2023-06-04T08:41:52;23.00;33.10
14101;DHT22;7127;49.372;8.166;2023-06-04T08:44:22;23.10;33.20
14101;DHT22;7127;49.372;8.166;2023-06-04T08:46:51;23.20;33.20
14101;DHT22;7127;49.372;8.166;2023-06-04T08:49:19;23.30;33.00
14101;DHT22;7127;49.372;8.166;2023-06-04T08:51:48;23.50;33.30
14101;DHT22;7127;49.372;8.166;2023-06-04T08:54:15;23.60;33.00
14101;DHT22;7127;49.372;8.166;2023-06-04T08:56:43;23.70;33.10
14101;DHT22;7127;49.372;8.166;2023-06-04T08:59:10;23.80;33.10
14101;DHT22;7127;49.372;8.166;2023-06-04T09:01:41;23.90;32.70
14101;DHT22;7127;49.372;8.166;2023-06-04T09:04:10;24.00;32.70
14101;DHT22;7127;49.372;8.166;2023-06-04T09:06:39;24.00;32.50
14101;DHT22;7127;49.372;8.166;2023-06-04T09:09:09;24.10;32.40
14101;DHT22;7127;49.372;8.166;2023-06-04T09:11:41;24.30;32.30
14101;DHT22;7127;49.372;8.166;2023-06-04T09:14:14;24.30;32.30
14101;DHT22;7127;49.372;8.166;2023-06-04T09:16:47;24.40;32.20
14101;DHT22;7127;49.372;8.166;2023-06-04T09:19:15;24.30;32.20
14101;DHT22;7127;49.372;8.166;2023-06-04T09:21:52;24.30;32.20
14101;DHT22;7127;49.372;8.166;2023-06-04T09:24:20;24.40;32.00
14101;DHT22;7127;49.372;8.166;2023-06-04T09:26:47;24.50;32.10
14101;DHT22;7127;49.372;8.166;2023-06-04T09:29:14;24.40;32.10
14101;DHT22;7127;49.372;8.166;2023-06-04T09:31:42;24.30;32.00
14101;DHT22;7127;49.372;8.166;2023-06-04T09:34:12;24.40;32.10
14101;DHT22;7127;49.372;8.166;2023-06-04T09:36:39;24.50;32.10
14101;DHT22;7127;49.372;8.166;2023-06-04T09:39:15;24.50;32.20
14101;DHT22;7127;49.372;8.166;2023-06-04T09:41:42;24.50;32.20
14101;DHT22;7127;49.372;8.166;2023-06-04T09:44:09;24.60;32.30
14101;DHT22;7127;49.372;8.166;2023-06-04T09:46:37;24.60;32.10
14101;DHT22;7127;49.372;8.166;2023-06-04T09:49:05;24.70;32.30
14101;DHT22;7127;49.372;8.166;2023-06-04T09:51:33;24.80;32.30
14101;DHT22;7127;49.372;8.166;2023-06-04T09:54:01;24.90;32.20
14101;DHT22;7127;49.372;8.166;2023-06-04T09:56:29;24.80;32.00
14101;DHT22;7127;49.372;8.166;2023-06-04T09:58:59;24.90;32.00
14101;DHT22;7127;49.372;8.166;2023-06-04T10:01:28;24.90;31.70
14101;DHT22;7127;49.372;8.166;2023-06-04T10:03:58;25.00;31.80
14101;DHT22;7127;49.372;8.166;2023-06-04T10:06:34;25.00;31.80
14101;DHT22;7127;49.372;8.166;2023-06-04T10:09:05;25.00;31.80
14101;DHT22;7127;49.372;8.166;2023-06-04T10:11:35;25.10;31.70
14101;DHT22;7127;49.372;8.166;2023-06-04T10:14:03;25.10;31.50
14101;DHT22;7127;49.372;8.166;2023-06-04T10:16:32;25.10;31.30
14101;DHT22;7127;49.372;8.166;2023-06-04T10:19:00;25.00;31.50
14101;DHT22;7127;49.372;8.166;2023-06-04T10:21:28;25.20;31.60
14101;DHT22;7127;49.372;8.166;2023-06-04T10:23:59;25.20;31.70
14101;DHT22;7127;49.372;8.166;2023-06-04T10:26:26;25.30;31.60
14101;DHT22;7127;49.372;8.166;2023-06-04T10:28:53;25.40;31.40
14101;DHT22;7127;49.372;8.166;2023-06-04T10:31:22;25.40;31.30
14101;DHT22;7127;49.372;8.166;2023-06-04T10:33:54;25.40;31.30
14101;DHT22;7127;49.372;8.166;2023-06-04T10:36:22;25.50;31.40
14101;DHT22;7127;49.372;8.166;2023-06-04T10:38:50;25.50;31.20
14101;DHT22;7127;49.372;8.166;2023-06-04T10:41:19;25.60;31.20
14101;DHT22;7127;49.372;8.166;2023-06-04T10:43:48;25.70;31.30
14101;DHT22;7127;49.372;8.166;2023-06-04T10:46:17;25.70;31.30
14101;DHT22;7127;49.372;8.166;2023-06-04T10:48:48;25.80;31.30
14101;DHT22;7127;49.372;8.166;2023-06-04T10:51:16;25.90;30.90
14101;DHT22;7127;49.372;8.166;2023-06-04T10:53:55;26.00;31.00
14101;DHT22;7127;49.372;8.166;2023-06-04T10:56:26;26.00;31.00
14101;DHT22;7127;49.372;8.166;2023-06-04T10:58:53;26.10;30.50
14101;DHT22;7127;49.372;8.166;2023-06-04T11:01:24;26.20;30.70
14101;DHT22;7127;49.372;8.166;2023-06-04T11:03:51;26.20;30.60
14101;DHT22;7127;49.372;8.166;2023-06-04T11:06:18;26.30;30.50
14101;DHT22;7127;49.372;8.166;2023-06-04T11:08:47;26.40;30.20
14101;DHT22;7127;49.372;8.166;2023-06-04T11:11:15;26.40;30.30
14101;DHT22;7127;49.372;8.166;2023-06-04T11:13:44;26.50;30.40
14101;DHT22;7127;49.372;8.166;2023-06-04T11:16:18;26.50;29.80
14101;DHT22;7127;49.372;8.166;2023-06-04T11:18:54;26.60;29.90
14101;DHT22;7127;49.372;8.166;2023-06-04T11:21:24;26.60;29.90
14101;DHT22;7127;49.372;8.166;2023-06-04T11:23:58;26.50;30.00
14101;DHT22;7127;49.372;8.166;2023-06-04T11:26:30;26.70;30.00
14101;DHT22;7127;49.372;8.166;2023-06-04T11:28:58;26.80;30.00
14101;DHT22;7127;49.372;8.166;2023-06-04T11:31:25;26.70;30.00
14101;DHT22;7127;49.372;8.166;2023-06-04T11:33:52;26.80;30.00
14101;DHT22;7127;49.372;8.166;2023-06-04T11:36:23;26.90;30.00
14101;DHT22;7127;49.372;8.166;2023-06-04T11:38:56;27.00;30.00
14101;DHT22;7127;49.372;8.166;2023-06-04T11:41:23;27.00;30.00
14101;DHT22;7127;49.372;8.166;2023-06-04T11:43:50;27.10;29.90
14101;DHT22;7127;49.372;8.166;2023-06-04T11:46:19;27.20;29.70
14101;DHT22;7127;49.372;8.166;2023-06-04T11:48:46;27.20;29.60
14101;DHT22;7127;49.372;8.166;2023-06-04T11:51:13;27.20;29.60
14101;DHT22;7127;49.372;8.166;2023-06-04T11:53:40;27.30;29.60
14101;DHT22;7127;49.372;8.166;2023-06-04T11:56:07;27.30;29.40
14101;DHT22;7127;49.372;8.166;2023-06-04T11:58:34;27.20;29.10
14101;DHT22;7127;49.372;8.166;2023-06-04T12:01:01;27.30;29.30
14101;DHT22;7127;49.372;8.166;2023-06-04T12:03:36;27.30;29.00
14101;DHT22;7127;49.372;8.166;2023-06-04T12:06:13;27.40;29.00
14101;DHT22;7127;49.372;8.166;2023-06-04T12:08:48;27.30;28.80
14101;DHT22;7127;49.372;8.166;2023-06-04T12:11:29;27.40;28.80
14101;DHT22;7127;49.372;8.166;2023-06-04T12:13:58;27.40;28.60
14101;DHT22;7127;49.372;8.166;2023-06-04T12:16:25;27.30;28.60
14101;DHT22;7127;49.372;8.166;2023-06-04T12:19:04;27.50;28.60
14101;DHT22;7127;49.372;8.166;2023-06-04T12:21:32;27.50;28.40
14101;DHT22;7127;49.372;8.166;2023-06-04T12:24:06;27.50;28.20
14101;DHT22;7127;49.372;8.166;2023-06-04T12:26:33;27.60;28.10
14101;DHT22;7127;49.372;8.166;2023-06-04T12:29:07;27.50;28.00
14101;DHT22;7127;49.372;8.166;2023-06-04T12:31:35;27.60;27.70
14101;DHT22;7127;49.372;8.166;2023-06-04T12:34:04;27.50;27.30
14101;DHT22;7127;49.372;8.166;2023-06-04T12:36:31;27.60;27.40
14101;DHT22;7127;49.372;8.166;2023-06-04T12:39:00;27.60;27.40
14101;DHT22;7127;49.372;8.166;2023-06-04T12:41:27;27.60;27.20
14101;DHT22;7127;49.372;8.166;2023-06-04T12:43:54;27.80;27.20
14101;DHT22;7127;49.372;8.166;2023-06-04T12:46:22;27.60;27.30
14101;DHT22;7127;49.372;8.166;2023-06-04T12:48:50;27.60;27.00
14101;DHT22;7127;49.372;8.166;2023-06-04T12:51:18;27.60;27.20
14101;DHT22;7127;49.372;8.166;2023-06-04T12:53:46;27.70;27.40
14101;DHT22;7127;49.372;8.166;2023-06-04T12:56:13;27.70;27.50
14101;DHT22;7127;49.372;8.166;2023-06-04T12:58:40;27.70;27.20
14101;DHT22;7127;49.372;8.166;2023-06-04T13:01:07;27.70;26.80
14101;DHT22;7127;49.372;8.166;2023-06-04T13:03:36;27.70;26.50
14101;DHT22;7127;49.372;8.166;2023-06-04T13:06:03;27.70;26.90
14101;DHT22;7127;49.372;8.166;2023-06-04T13:08:32;27.80;27.10
14101;DHT22;7127;49.372;8.166;2023-06-04T13:11:00;27.80;27.20
14101;DHT22;7127;49.372;8.166;2023-06-04T13:13:27;27.80;27.20
14101;DHT22;7127;49.372;8.166;2023-06-04T13:15:54;27.90;27.20
14101;DHT22;7127;49.372;8.166;2023-06-04T13:18:21;28.00;27.20
14101;DHT22;7127;49.372;8.166;2023-06-04T13:20:48;27.90;26.90
14101;DHT22;7127;49.372;8.166;2023-06-04T13:23:15;27.90;26.90
14101;DHT22;7127;49.372;8.166;2023-06-04T13:25:44;28.00;27.00
14101;DHT22;7127;49.372;8.166;2023-06-04T13:28:10;28.00;27.50
14101;DHT22;7127;49.372;8.166;2023-06-04T13:30:38;28.00;27.00
14101;DHT22;7127;49.372;8.166;2023-06-04T13:33:05;28.10;26.90
14101;DHT22;7127;49.372;8.166;2023-06-04T13:35:32;28.00;26.70
14101;DHT22;7127;49.372;8.166;2023-06-04T13:37:59;28.10;26.80
14101;DHT22;7127;49.372;8.166;2023-06-04T13:40:26;28.20;26.70
14101;DHT22;7127;49.372;8.166;2023-06-04T13:42:55;28.10;26.70
14101;DHT22;7127;49.372;8.166;2023-06-04T13:45:21;28.10;26.60
14101;DHT22;7127;49.372;8.166;2023-06-04T13:47:49;28.00;26.60
14101;DHT22;7127;49.372;8.166;2023-06-04T13:50:16;28.00;26.60
14101;DHT22;7127;49.372;8.166;2023-06-04T13:52:44;28.10;26.40
14101;DHT22;7127;49.372;8.166;2023-06-04T13:55:12;28.00;26.10
14101;DHT22;7127;49.372;8.166;2023-06-04T13:57:39;28.10;26.40
14101;DHT22;7127;49.372;8.166;2023-06-04T14:00:08;28.10;26.50
14101;DHT22;7127;49.372;8.166;2023-06-04T14:02:35;28.10;26.40
14101;DHT22;7127;49.372;8.166;2023-06-04T14:05:04;28.00;26.10
14101;DHT22;7127;49.372;8.166;2023-06-04T14:07:31;28.10;26.00
14101;DHT22;7127;49.372;8.166;2023-06-04T14:09:58;28.00;25.90
14101;DHT22;7127;49.372;8.166;2023-06-04T14:12:25;28.00;25.70
14101;DHT22;7127;49.372;8.166;2023-06-04T14:14:52;28.00;26.00
14101;DHT22;7127;49.372;8.166;2023-06-04T14:17:20;28.00;26.20
14101;DHT22;7127;49.372;8.166;2023-06-04T14:19:47;28.00;25.90
14101;DHT22;7127;49.372;8.166;2023-06-04T14:22:13;27.90;25.80
14101;DHT22;7127;49.372;8.166;2023-06-04T14:24:40;28.00;25.70
14101;DHT22;7127;49.372;8.166;2023-06-04T14:27:07;28.00;25.70
14101;DHT22;7127;49.372;8.166;2023-06-04T14:29:35;27.90;25.40
14101;DHT22;7127;49.372;8.166;2023-06-04T14:32:02;27.80;25.50
14101;DHT22;7127;49.372;8.166;2023-06-04T14:34:30;27.90;25.40
14101;DHT22;7127;49.372;8.166;2023-06-04T14:36:58;27.90;25.70
14101;DHT22;7127;49.372;8.166;2023-06-04T14:39:25;28.00;25.70
14101;DHT22;7127;49.372;8.166;2023-06-04T14:41:53;28.00;25.70
14101;DHT22;7127;49.372;8.166;2023-06-04T14:44:20;28.00;25.60
14101;DHT22;7127;49.372;8.166;2023-06-04T14:46:48;28.00;25.70
14101;DHT22;7127;49.372;8.166;2023-06-04T14:49:16;28.00;25.50
14101;DHT22;7127;49.372;8.166;2023-06-04T14:51:44;28.10;25.30
14101;DHT22;7127;49.372;8.166;2023-06-04T14:54:11;28.00;25.40
14101;DHT22;7127;49.372;8.166;2023-06-04T14:56:38;28.10;25.80
14101;DHT22;7127;49.372;8.166;2023-06-04T14:59:05;28.20;25.40
14101;DHT22;7127;49.372;8.166;2023-06-04T15:01:34;28.10;25.10
14101;DHT22;7127;49.372;8.166;2023-06-04T15:04:02;28.30;25.40
14101;DHT22;7127;49.372;8.166;2023-06-04T15:06:29;28.20;25.40
14101;DHT22;7127;49.372;8.166;2023-06-04T15:08:57;28.10;25.00
14101;DHT22;7127;49.372;8.166;2023-06-04T15:11:24;28.20;24.80
14101;DHT22;7127;49.372;8.166;2023-06-04T15:13:52;28.30;24.60
14101;DHT22;7127;49.372;8.166;2023-06-04T15:16:19;28.20;24.60
14101;DHT22;7127;49.372;8.166;2023-06-04T15:18:46;28.20;24.40
14101;DHT22;7127;49.372;8.166;2023-06-04T15:21:13;28.20;24.60
14101;DHT22;7127;49.372;8.166;2023-06-04T15:23:40;28.10;24.60
14101;DHT22;7127;49.372;8.166;2023-06-04T15:26:11;28.10;24.50
14101;DHT22;7127;49.372;8.166;2023-06-04T15:28:37;28.30;24.50
14101;DHT22;7127;49.372;8.166;2023-06-04T15:31:04;28.20;24.20
14101;DHT22;7127;49.372;8.166;2023-06-04T15:33:31;28.10;24.40
14101;DHT22;7127;49.372;8.166;2023-06-04T15:35:58;28.10;24.50
14101;DHT22;7127;49.372;8.166;2023-06-04T15:38:25;28.10;24.50
14101;DHT22;7127;49.372;8.166;2023-06-04T15:40:52;28.10;24.60
14101;DHT22;7127;49.372;8.166;2023-06-04T15:43:20;28.10;24.50
14101;DHT22;7127;49.372;8.166;2023-06-04T15:45:47;28.20;24.50
14101;DHT22;7127;49.372;8.166;2023-06-04T15:48:13;28.20;24.50
14101;DHT22;7127;49.372;8.166;2023-06-04T15:50:40;28.20;24.50